createdAt,value
2022-12-18T00:00:45.126Z,-4.02
2022-12-18T00:02:46.898Z,-3.95
2022-12-18T00:04:48.771Z,-3.93
2022-12-18T00:06:50.719Z,-4.00
2022-12-18T00:08:52.979Z,-3.97
2022-12-18T00:10:54.873Z,-3.82
2022-12-18T00:13:05.177Z,-4.11
2022-12-18T00:15:10.223Z,-3.85
2022-12-18T00:17:12.175Z,-3.81
2022-12-18T00:19:15.565Z,-3.78
2022-12-18T00:21:17.813Z,-3.71
2022-12-18T00:23:19.675Z,-3.92
2022-12-18T00:25:21.927Z,-3.81
2022-12-18T00:27:23.642Z,-3.85
2022-12-18T00:29:25.380Z,-3.73
2022-12-18T00:31:27.904Z,-4.02
2022-12-18T00:33:29.934Z,-3.95
2022-12-18T00:35:32.914Z,-3.87
2022-12-18T00:37:35.749Z,-3.70
2022-12-18T00:39:37.520Z,-3.86
2022-12-18T00:41:39.273Z,-3.56
2022-12-18T00:43:41.891Z,-3.71
2022-12-18T00:45:43.977Z,-3.81
2022-12-18T00:47:46.681Z,-3.95
2022-12-18T00:49:48.600Z,-3.85
2022-12-18T00:51:50.730Z,-3.62
2022-12-18T00:53:52.590Z,-4.01
2022-12-18T00:55:54.481Z,-3.82
2022-12-18T00:57:56.327Z,-3.97
2022-12-18T00:59:58.001Z,-3.70
2022-12-18T01:02:00.108Z,-3.83
2022-12-18T01:04:03.702Z,-3.76
2022-12-18T01:06:09.081Z,-3.87
2022-12-18T01:08:11.084Z,-3.82
2022-12-18T01:10:13.850Z,-3.75
2022-12-18T01:12:15.553Z,-3.72
2022-12-18T01:14:17.353Z,-3.95
2022-12-18T01:16:19.524Z,-3.91
2022-12-18T01:18:21.280Z,-4.00
2022-12-18T01:20:22.975Z,-3.94
2022-12-18T01:22:24.839Z,-3.81
2022-12-18T01:24:26.744Z,-3.94
2022-12-18T01:26:29.056Z,-3.88
2022-12-18T01:28:30.952Z,-3.93
2022-12-18T01:30:32.714Z,-3.80
2022-12-18T01:32:34.902Z,-4.12
2022-12-18T01:34:38.288Z,-3.92
2022-12-18T01:36:40.066Z,-3.90
2022-12-18T01:38:41.989Z,-3.82
2022-12-18T01:40:43.790Z,-3.84
2022-12-18T01:42:45.504Z,-3.81
2022-12-18T01:44:59.224Z,-4.00
2022-12-18T01:47:01.394Z,-3.86
2022-12-18T01:49:03.244Z,-3.98
2022-12-18T01:51:07.207Z,-3.92
2022-12-18T01:53:19.321Z,-4.03
2022-12-18T01:55:24.857Z,-3.79
2022-12-18T01:57:28.148Z,-3.97
2022-12-18T01:59:32.084Z,-3.92
2022-12-18T02:01:34.608Z,-4.02
2022-12-18T02:03:36.882Z,-3.78
2022-12-18T02:06:14.543Z,-3.84
2022-12-18T02:08:31.876Z,-4.07
2022-12-18T02:10:43.749Z,-3.95
2022-12-18T02:13:02.873Z,-4.03
2022-12-18T02:15:13.975Z,-3.95
2022-12-18T02:17:19.323Z,-3.86
2022-12-18T02:19:42.150Z,-3.98
2022-12-18T02:22:08.065Z,-4.01
2022-12-18T02:24:26.674Z,-4.04
2022-12-18T02:26:38.675Z,-3.98
2022-12-18T02:28:50.391Z,-3.99
2022-12-18T02:30:54.777Z,-3.88
2022-12-18T02:32:59.653Z,-3.75
2022-12-18T02:35:03.377Z,-3.59
2022-12-18T02:37:20.377Z,-3.76
2022-12-18T02:39:24.826Z,-3.72
2022-12-18T02:41:27.153Z,-4.05
2022-12-18T02:43:31.060Z,-3.81
2022-12-18T02:45:32.828Z,-3.89
2022-12-18T02:47:39.238Z,-3.98
2022-12-18T02:49:55.859Z,-3.86
2022-12-18T02:52:16.353Z,-3.90
2022-12-18T02:54:51.394Z,-3.65
2022-12-18T02:56:57.524Z,-3.61
2022-12-18T02:59:04.679Z,-3.61
2022-12-18T03:01:42.111Z,-3.69
2022-12-18T03:03:53.214Z,-3.62
2022-12-18T03:06:02.193Z,-3.53
2022-12-18T03:08:13.459Z,-3.53
2022-12-18T03:10:20.811Z,-3.65
2022-12-18T03:12:36.046Z,-3.78
2022-12-18T03:14:41.319Z,-3.65
2022-12-18T03:16:45.738Z,-3.45
2022-12-18T03:18:55.782Z,-3.50
2022-12-18T03:21:01.409Z,-3.34
2022-12-18T03:23:12.568Z,-3.49
2022-12-18T03:25:16.450Z,-3.17
2022-12-18T03:27:21.384Z,-3.23
2022-12-18T03:29:28.957Z,-3.22
2022-12-18T03:31:33.778Z,-3.06
2022-12-18T03:34:08.129Z,-3.18
2022-12-18T03:36:09.999Z,-3.28
2022-12-18T03:38:12.672Z,-3.40
2022-12-18T03:40:14.549Z,-3.24
2022-12-18T03:42:39.465Z,-3.31
2022-12-18T03:45:22.503Z,-3.25
2022-12-18T03:47:33.947Z,-3.45
2022-12-18T03:49:47.644Z,-3.33
2022-12-18T03:51:49.280Z,-3.43
2022-12-18T03:54:01.065Z,-3.46
2022-12-18T03:56:04.972Z,-3.52
2022-12-18T03:58:08.852Z,-3.37
2022-12-18T04:00:14.631Z,-3.57
2022-12-18T04:02:19.007Z,-3.40
2022-12-18T04:04:22.684Z,-3.45
2022-12-18T04:06:24.711Z,-3.39
2022-12-18T04:08:26.961Z,-3.57
2022-12-18T04:10:29.074Z,-3.49
2022-12-18T04:12:30.977Z,-3.73
2022-12-18T04:14:32.906Z,-3.66
2022-12-18T04:16:34.658Z,-3.70
2022-12-18T04:18:36.814Z,-3.61
2022-12-18T04:20:38.638Z,-3.86
2022-12-18T04:22:40.310Z,-3.57
2022-12-18T04:24:42.960Z,-3.55
2022-12-18T04:26:44.795Z,-3.65
2022-12-18T04:28:46.552Z,-3.49
2022-12-18T04:30:48.328Z,-3.57
2022-12-18T04:32:52.381Z,-3.60
2022-12-18T04:34:54.376Z,-3.56
2022-12-18T04:36:56.069Z,-3.53
2022-12-18T04:38:58.199Z,-3.78
2022-12-18T04:40:59.968Z,-3.86
2022-12-18T04:43:01.718Z,-3.56
2022-12-18T04:45:04.015Z,-3.38
2022-12-18T04:47:05.974Z,-3.44
2022-12-18T04:49:07.678Z,-3.36
2022-12-18T04:51:09.545Z,-3.37
2022-12-18T04:53:11.393Z,-3.51
2022-12-18T04:55:13.055Z,-3.44
2022-12-18T04:57:14.993Z,-3.65
2022-12-18T04:59:16.738Z,-3.70
2022-12-18T05:01:19.521Z,-3.37
2022-12-18T05:03:21.477Z,-3.33
2022-12-18T05:05:23.363Z,-3.55
2022-12-18T05:07:25.167Z,-3.53
2022-12-18T05:09:26.978Z,-3.71
2022-12-18T05:11:28.957Z,-3.52
2022-12-18T05:13:31.016Z,-3.42
2022-12-18T05:15:34.066Z,-3.60
2022-12-18T05:17:36.001Z,-3.62
2022-12-18T05:19:37.692Z,-3.47
2022-12-18T05:21:39.418Z,-3.93
2022-12-18T05:23:41.682Z,-3.72
2022-12-18T05:25:44.018Z,-3.60
2022-12-18T05:27:47.611Z,-3.58
2022-12-18T05:29:49.518Z,-3.69
2022-12-18T05:31:51.281Z,-3.54
2022-12-18T05:33:53.294Z,-3.62
2022-12-18T05:35:58.134Z,-3.80
2022-12-18T05:37:59.862Z,-3.68
2022-12-18T05:40:02.665Z,-3.54
2022-12-18T05:42:04.414Z,-3.45
2022-12-18T05:44:12.189Z,-3.52
2022-12-18T05:46:17.800Z,-3.33
2022-12-18T05:48:20.283Z,-3.36
2022-12-18T05:50:22.004Z,-3.21
2022-12-18T05:52:24.129Z,-3.36
2022-12-18T05:54:28.462Z,-3.49
2022-12-18T05:56:30.139Z,-3.58
2022-12-18T05:58:32.888Z,-3.70
2022-12-18T06:00:36.518Z,-4.17
2022-12-18T06:02:38.293Z,-3.76
2022-12-18T06:04:40.703Z,-3.91
2022-12-18T06:06:42.561Z,-3.58
2022-12-18T06:08:46.837Z,-3.71
2022-12-18T06:10:53.357Z,-3.87
2022-12-18T06:12:55.575Z,-3.68
2022-12-18T06:14:57.235Z,-3.68
2022-12-18T06:16:59.095Z,-3.41
2022-12-18T06:19:02.583Z,-3.37
2022-12-18T06:21:04.249Z,-3.40
2022-12-18T06:23:06.168Z,-3.76
2022-12-18T06:25:08.434Z,-3.78
2022-12-18T06:27:10.481Z,-3.73
2022-12-18T06:29:12.481Z,-3.66
2022-12-18T06:31:14.357Z,-3.72
2022-12-18T06:33:17.193Z,-3.76
2022-12-18T06:35:18.882Z,-4.03
2022-12-18T06:37:23.888Z,-3.84
2022-12-18T06:39:28.009Z,-3.94
2022-12-18T06:41:29.864Z,-3.95
2022-12-18T06:43:31.542Z,-3.87
2022-12-18T06:45:33.355Z,-3.92
2022-12-18T06:47:35.374Z,-3.86
2022-12-18T06:49:37.066Z,-3.81
2022-12-18T06:51:39.387Z,-3.98
2022-12-18T06:53:41.439Z,-3.67
2022-12-18T06:55:43.800Z,-4.08
2022-12-18T06:57:45.763Z,-4.15
2022-12-18T06:59:47.535Z,-4.05
2022-12-18T07:01:49.375Z,-4.21
2022-12-18T07:03:56.303Z,-4.15
2022-12-18T07:05:58.051Z,-4.12
2022-12-18T07:08:00.084Z,-4.00
2022-12-18T07:10:01.850Z,-4.11
2022-12-18T07:12:03.724Z,-4.29
2022-12-18T07:14:05.423Z,-4.02
2022-12-18T07:16:18.453Z,-3.91
2022-12-18T07:18:24.453Z,-3.91
2022-12-18T07:20:26.149Z,-4.03
2022-12-18T07:22:28.126Z,-4.09
2022-12-18T07:24:29.940Z,-4.16
2022-12-18T07:26:31.606Z,-4.07
2022-12-18T07:28:34.544Z,-3.81
2022-12-18T07:30:38.769Z,-3.69
2022-12-18T07:32:40.443Z,-3.66
2022-12-18T07:34:42.448Z,-3.74
2022-12-18T07:36:44.332Z,-3.83
2022-12-18T07:38:48.832Z,-3.77
2022-12-18T07:40:50.654Z,-3.65
2022-12-18T07:42:52.459Z,-3.69
2022-12-18T07:45:01.510Z,-3.94
2022-12-18T07:47:06.541Z,-3.98
2022-12-18T07:49:10.906Z,-3.77
2022-12-18T07:51:12.632Z,-4.02
2022-12-18T07:53:14.603Z,-4.13
2022-12-18T07:55:16.516Z,-4.16
2022-12-18T07:57:48.497Z,-4.03
2022-12-18T07:59:40.441Z,-3.94
2022-12-18T08:01:42.303Z,-3.97
2022-12-18T08:03:44.645Z,-4.35
2022-12-18T08:05:46.632Z,-4.21
2022-12-18T08:07:48.410Z,-3.81
2022-12-18T08:09:50.153Z,-3.94
2022-12-18T08:11:51.935Z,-4.12
2022-12-18T08:13:54.708Z,-4.10
2022-12-18T08:16:04.558Z,-3.85
2022-12-18T08:18:10.079Z,-3.74
2022-12-18T08:20:14.835Z,-3.81
2022-12-18T08:22:16.626Z,-3.80
2022-12-18T08:24:18.452Z,-3.69
2022-12-18T08:26:21.253Z,-3.61
2022-12-18T08:28:23.598Z,-3.61
2022-12-18T08:30:25.318Z,-3.78
2022-12-18T08:32:29.054Z,-3.70
2022-12-18T08:34:30.805Z,-3.84
2022-12-18T08:36:32.621Z,-3.84
2022-12-18T08:38:34.722Z,-3.77
2022-12-18T08:40:36.425Z,-3.64
2022-12-18T08:42:38.300Z,-3.82
2022-12-18T08:44:40.070Z,-3.63
2022-12-18T08:46:43.417Z,-4.03
2022-12-18T08:48:45.313Z,-3.83
2022-12-18T08:50:57.904Z,-3.71
2022-12-18T08:52:59.629Z,-3.84
2022-12-18T08:55:01.640Z,-3.56
2022-12-18T08:57:03.623Z,-3.55
2022-12-18T08:59:05.450Z,-3.86
2022-12-18T09:01:09.525Z,-3.68
2022-12-18T09:03:20.236Z,-3.64
2022-12-18T09:05:22.003Z,-3.64
2022-12-18T09:07:24.436Z,-3.74
2022-12-18T09:09:26.244Z,-3.37
2022-12-18T09:11:29.707Z,-3.25
2022-12-18T09:13:32.038Z,-3.01
2022-12-18T09:15:33.833Z,-3.07
2022-12-18T09:17:35.499Z,-3.21
2022-12-18T09:19:37.283Z,-3.23
2022-12-18T09:21:40.250Z,-2.99
2022-12-18T09:23:46.740Z,-2.99
2022-12-18T09:25:48.608Z,-3.00
2022-12-18T09:27:50.439Z,-3.23
2022-12-18T09:29:52.132Z,-3.09
2022-12-18T09:31:54.016Z,-3.24
2022-12-18T09:33:56.990Z,-3.04
2022-12-18T09:35:58.685Z,-3.09
2022-12-18T09:38:00.637Z,-2.84
2022-12-18T09:40:02.424Z,-3.05
2022-12-18T09:42:04.494Z,-3.40
2022-12-18T09:44:23.998Z,-3.43
2022-12-18T09:46:37.028Z,-3.20
2022-12-18T09:48:46.370Z,-3.14
2022-12-18T09:50:49.484Z,-3.04
2022-12-18T09:52:56.276Z,-2.96
2022-12-18T09:55:04.676Z,-2.67
2022-12-18T09:57:06.440Z,-2.73
2022-12-18T09:59:19.440Z,-2.68
2022-12-18T10:01:23.943Z,-2.78
2022-12-18T10:03:25.891Z,-3.17
2022-12-18T10:05:35.950Z,-3.26
2022-12-18T10:07:54.770Z,-3.44
2022-12-18T10:10:11.854Z,-3.14
2022-12-18T10:12:16.600Z,-2.69
2022-12-18T10:14:48.087Z,-2.49
2022-12-18T10:17:06.648Z,-2.40
2022-12-18T10:19:32.723Z,-2.64
2022-12-18T10:21:57.549Z,-2.60
2022-12-18T10:24:14.360Z,-2.59
2022-12-18T10:26:16.395Z,-2.60
2022-12-18T10:28:20.457Z,-2.59
2022-12-18T10:30:23.983Z,-2.83
2022-12-18T10:32:29.813Z,-2.62
2022-12-18T10:34:31.524Z,-2.51
2022-12-18T10:36:33.192Z,-2.47
2022-12-18T10:38:35.359Z,-2.64
2022-12-18T10:41:04.570Z,-2.61
2022-12-18T10:43:13.515Z,-2.72
2022-12-18T10:45:17.505Z,-2.57
2022-12-18T10:47:20.232Z,-2.72
2022-12-18T10:49:31.044Z,-2.89
2022-12-18T10:51:35.635Z,-2.75
2022-12-18T10:53:38.552Z,-2.89
2022-12-18T10:55:47.004Z,-2.80
2022-12-18T10:57:48.855Z,-2.84
2022-12-18T10:59:56.087Z,-2.96
2022-12-18T11:01:59.450Z,-3.20
2022-12-18T11:04:03.871Z,-3.33
2022-12-18T11:06:16.956Z,-3.37
2022-12-18T11:08:22.813Z,-3.37
2022-12-18T11:10:37.625Z,-3.42
2022-12-18T11:12:39.375Z,-3.28
2022-12-18T11:14:48.640Z,-2.89
2022-12-18T11:19:26.105Z,-2.99
2022-12-18T11:21:27.682Z,-3.10
2022-12-18T11:23:29.508Z,-3.08
2022-12-18T11:25:32.951Z,-3.44
2022-12-18T11:27:35.663Z,-3.58
2022-12-18T11:29:44.938Z,-3.53
2022-12-18T11:31:48.586Z,-3.58
2022-12-18T11:34:28.093Z,-3.70
2022-12-18T11:36:32.700Z,-3.29
2022-12-18T11:38:39.242Z,-3.34
2022-12-18T11:40:44.698Z,-3.14
2022-12-18T11:43:11.811Z,-2.94
2022-12-18T11:45:13.620Z,-3.12
2022-12-18T11:47:22.231Z,-3.29
2022-12-18T11:49:29.883Z,-3.46
2022-12-18T11:51:38.497Z,-3.51
2022-12-18T11:53:40.207Z,-3.10
2022-12-18T11:55:48.561Z,-3.55
2022-12-18T11:58:03.658Z,-3.67
2022-12-18T12:00:20.600Z,-3.16
2022-12-18T12:02:43.911Z,-3.49
2022-12-18T12:05:04.644Z,-3.75
2022-12-18T12:07:32.389Z,-3.81
2022-12-18T12:09:56.035Z,-4.05
2022-12-18T12:11:57.898Z,-3.79
2022-12-18T12:14:08.817Z,-3.96
2022-12-18T12:16:28.378Z,-4.40
2022-12-18T12:18:48.411Z,-3.93
2022-12-18T12:21:23.883Z,-3.80
2022-12-18T12:23:34.940Z,-3.95
2022-12-18T12:25:44.713Z,-4.04
2022-12-18T12:28:04.699Z,-3.93
2022-12-18T12:30:10.621Z,-4.09
2022-12-18T12:32:29.779Z,-3.98
2022-12-18T12:34:57.883Z,-4.20
2022-12-18T12:37:07.617Z,-4.07
2022-12-18T12:39:17.400Z,-4.02
2022-12-18T12:41:23.314Z,-4.11
2022-12-18T12:43:49.464Z,-3.86
2022-12-18T12:46:07.527Z,-4.05
2022-12-18T12:48:32.426Z,-4.18
2022-12-18T12:50:36.625Z,-3.87
2022-12-18T12:52:52.838Z,-3.63
2022-12-18T12:54:55.515Z,-3.68
2022-12-18T12:57:13.850Z,-3.48
2022-12-18T12:59:47.272Z,-3.33
2022-12-18T13:01:51.576Z,-3.45
2022-12-18T13:04:13.782Z,-3.46
2022-12-18T13:06:44.284Z,-4.33
2022-12-18T13:09:00.855Z,-3.78
2022-12-18T13:11:03.141Z,-3.74
2022-12-18T13:13:09.190Z,-4.13
2022-12-18T13:15:24.506Z,-3.93
2022-12-18T13:17:30.516Z,-3.88
2022-12-18T13:19:32.293Z,-3.86
2022-12-18T13:21:35.622Z,-4.10
2022-12-18T13:23:38.383Z,-4.35
2022-12-18T13:25:41.270Z,-4.15
2022-12-18T13:27:46.008Z,-4.40
2022-12-18T13:29:47.904Z,-4.62
2022-12-18T13:31:49.984Z,-4.50
2022-12-18T13:34:25.149Z,-4.70
2022-12-18T13:36:15.339Z,-4.69
2022-12-18T13:38:24.293Z,-4.82
2022-12-18T13:40:41.382Z,-4.85
2022-12-18T13:42:43.313Z,-5.14
2022-12-18T13:44:45.935Z,-4.97
2022-12-18T13:46:51.034Z,-4.97
2022-12-18T13:49:21.152Z,-5.12
2022-12-18T13:51:24.670Z,-5.19
2022-12-18T13:53:34.799Z,-4.83
2022-12-18T13:55:36.826Z,-4.88
2022-12-18T13:57:39.748Z,-5.09
2022-12-18T13:59:41.544Z,-4.79
2022-12-18T14:01:49.309Z,-4.88
2022-12-18T14:03:52.013Z,-4.91
2022-12-18T14:06:10.476Z,-5.01
2022-12-18T14:08:19.492Z,-4.97
2022-12-18T14:10:48.677Z,-4.78
2022-12-18T14:12:52.985Z,-5.01
2022-12-18T14:14:56.986Z,-5.12
2022-12-18T14:17:00.692Z,-5.36
2022-12-18T14:19:10.208Z,-5.30
2022-12-18T14:21:39.582Z,-5.58
2022-12-18T14:23:43.705Z,-5.55
2022-12-18T14:25:47.544Z,-5.55
2022-12-18T14:28:09.917Z,-5.55
2022-12-18T14:30:42.104Z,-5.58
2022-12-18T14:32:49.300Z,-5.67
2022-12-18T14:34:56.507Z,-5.58
2022-12-18T14:37:00.005Z,-5.55
2022-12-18T14:39:04.809Z,-5.43
2022-12-18T14:41:10.994Z,-5.52
2022-12-18T14:43:13.154Z,-5.57
2022-12-18T14:45:42.176Z,-5.44
2022-12-18T14:47:46.284Z,-5.58
2022-12-18T14:49:49.116Z,-5.62
2022-12-18T14:52:01.415Z,-5.72
2022-12-18T14:54:06.470Z,-5.67
2022-12-18T14:56:18.332Z,-5.74
2022-12-18T14:58:22.398Z,-6.06
2022-12-18T15:00:26.939Z,-6.18
2022-12-18T15:02:30.430Z,-6.01
2022-12-18T15:04:43.333Z,-5.90
2022-12-18T15:06:46.815Z,-5.86
2022-12-18T15:08:51.192Z,-5.94
2022-12-18T15:10:53.543Z,-5.93
2022-12-18T15:12:58.541Z,-6.02
2022-12-18T15:15:00.566Z,-5.94
2022-12-18T15:17:06.168Z,-6.17
2022-12-18T15:19:10.516Z,-6.19
2022-12-18T15:21:19.194Z,-6.26
2022-12-18T15:23:25.074Z,-6.30
2022-12-18T15:25:37.763Z,-6.41
2022-12-18T15:27:51.710Z,-6.45
2022-12-18T15:30:20.718Z,-6.82
2022-12-18T15:32:26.944Z,-6.45
2022-12-18T15:34:29.611Z,-6.47
2022-12-18T15:36:31.525Z,-6.38
2022-12-18T15:38:38.636Z,-6.65
2022-12-18T15:40:41.936Z,-6.72
2022-12-18T15:42:48.301Z,-6.52
2022-12-18T15:44:55.913Z,-6.82
2022-12-18T15:46:58.465Z,-6.86
2022-12-18T15:49:02.637Z,-6.85
2022-12-18T15:51:06.534Z,-6.64
2022-12-18T15:53:11.076Z,-6.62
2022-12-18T15:55:15.619Z,-6.68
2022-12-18T15:57:20.039Z,-6.63
2022-12-18T15:59:25.090Z,-6.61
2022-12-18T16:01:30.541Z,-6.58
2022-12-18T16:03:32.660Z,-6.96
2022-12-18T16:05:35.710Z,-6.73
2022-12-18T16:07:37.467Z,-6.70
2022-12-18T16:09:39.302Z,-7.16
2022-12-18T16:11:43.894Z,-7.03
2022-12-18T16:13:45.648Z,-7.22
2022-12-18T16:15:48.126Z,-7.01
2022-12-18T16:17:49.914Z,-7.20
2022-12-18T16:19:51.603Z,-7.08
2022-12-18T16:21:57.218Z,-6.87
2022-12-18T16:23:59.004Z,-7.04
2022-12-18T16:26:00.959Z,-6.79
2022-12-18T16:28:04.081Z,-6.84
2022-12-18T16:30:08.099Z,-6.66
2022-12-18T16:32:14.972Z,-6.45
2022-12-18T16:34:35.245Z,-6.25
2022-12-18T16:36:38.337Z,-6.17
2022-12-18T16:38:41.660Z,-6.26
2022-12-18T16:40:45.797Z,-6.36
2022-12-18T16:42:47.991Z,-6.54
2022-12-18T16:44:50.866Z,-6.37
2022-12-18T16:46:53.249Z,-6.54
2022-12-18T16:48:55.485Z,-6.40
2022-12-18T16:51:08.901Z,-6.32
2022-12-18T16:53:13.840Z,-6.32
2022-12-18T16:55:16.248Z,-6.48
2022-12-18T16:57:22.673Z,-6.23
2022-12-18T16:59:27.950Z,-6.51
2022-12-18T17:01:31.915Z,-6.71
2022-12-18T17:03:33.864Z,-7.06
2022-12-18T17:05:40.080Z,-6.92
2022-12-18T17:07:42.308Z,-7.00
2022-12-18T17:09:44.651Z,-7.15
2022-12-18T17:11:47.440Z,-6.84
2022-12-18T17:13:51.790Z,-6.76
2022-12-18T17:15:54.815Z,-6.62
2022-12-18T17:17:57.777Z,-6.79
2022-12-18T17:20:01.085Z,-7.31
2022-12-18T17:22:04.053Z,-7.03
2022-12-18T17:24:07.809Z,-6.97
2022-12-18T17:26:12.065Z,-6.93
2022-12-18T17:28:16.511Z,-7.07
2022-12-18T17:30:21.148Z,-6.86
2022-12-18T17:32:23.188Z,-6.89
2022-12-18T17:34:26.538Z,-6.76
2022-12-18T17:36:29.041Z,-6.83
2022-12-18T17:38:31.971Z,-6.95
2022-12-18T17:40:34.533Z,-7.12
2022-12-18T17:42:38.559Z,-7.04
2022-12-18T17:44:40.498Z,-7.11
2022-12-18T17:46:44.218Z,-7.06
2022-12-18T17:48:47.701Z,-6.98
2022-12-18T17:50:49.700Z,-7.15
2022-12-18T17:52:57.465Z,-6.96
2022-12-18T17:54:59.619Z,-6.83
2022-12-18T17:57:01.607Z,-6.88
2022-12-18T17:59:04.620Z,-6.77
2022-12-18T18:01:07.160Z,-6.94
2022-12-18T18:03:09.024Z,-6.83
2022-12-18T18:05:11.129Z,-6.73
2022-12-18T18:07:13.972Z,-6.67
2022-12-18T18:09:16.934Z,-6.81
2022-12-18T18:11:21.273Z,-6.78
2022-12-18T18:13:25.626Z,-6.70
2022-12-18T18:15:27.351Z,-6.70
2022-12-18T18:17:29.031Z,-6.97
2022-12-18T18:19:30.735Z,-6.76
2022-12-18T18:21:37.862Z,-6.78
2022-12-18T18:23:40.724Z,-6.84
2022-12-18T18:25:44.261Z,-7.00
2022-12-18T18:27:46.119Z,-6.93
2022-12-18T18:29:49.099Z,-6.86
2022-12-18T18:31:50.889Z,-6.94
2022-12-18T18:33:52.768Z,-6.73
2022-12-18T18:35:55.044Z,-6.62
2022-12-18T18:37:56.921Z,-6.80
2022-12-18T18:39:58.649Z,-6.91
2022-12-18T18:42:00.533Z,-6.94
2022-12-18T18:44:02.532Z,-6.85
2022-12-18T18:46:05.726Z,-6.55
2022-12-18T18:48:07.490Z,-6.56
2022-12-18T18:50:09.902Z,-6.51
2022-12-18T18:52:11.609Z,-6.48
2022-12-18T18:54:13.559Z,-6.65
2022-12-18T18:58:40.738Z,-6.40
2022-12-18T19:00:42.498Z,-6.42
2022-12-18T19:02:45.510Z,-6.54
2022-12-18T19:04:47.445Z,-6.49
2022-12-18T19:06:49.178Z,-6.41
2022-12-18T19:08:52.172Z,-6.35
2022-12-18T19:10:57.912Z,-6.41
2022-12-18T19:12:59.799Z,-6.57
2022-12-18T19:15:01.575Z,-6.43
2022-12-18T19:17:03.355Z,-6.43
2022-12-18T19:19:06.589Z,-6.34
2022-12-18T19:21:08.263Z,-6.25
2022-12-18T19:23:10.520Z,-6.38
2022-12-18T19:25:13.513Z,-6.32
2022-12-18T19:27:15.319Z,-6.41
2022-12-18T19:29:17.018Z,-6.59
2022-12-18T19:31:24.842Z,-6.79
2022-12-18T19:33:45.658Z,-6.89
2022-12-18T19:35:47.955Z,-6.88
2022-12-18T19:37:49.790Z,-6.99
2022-12-18T19:39:51.592Z,-7.02
2022-12-18T19:41:53.351Z,-7.01
2022-12-18T19:43:56.054Z,-7.01
2022-12-18T19:45:57.865Z,-7.19
2022-12-18T19:48:04.073Z,-7.25
2022-12-18T19:50:06.905Z,-7.18
2022-12-18T19:52:08.642Z,-7.14
2022-12-18T19:54:16.230Z,-6.97
2022-12-18T19:56:21.511Z,-6.91
2022-12-18T19:58:23.371Z,-6.94
2022-12-18T20:00:26.748Z,-6.90
2022-12-18T20:02:28.591Z,-6.98
2022-12-18T20:04:30.465Z,-6.94
2022-12-18T20:06:52.766Z,-7.10
2022-12-18T20:09:00.067Z,-7.27
2022-12-18T20:11:02.487Z,-7.20
2022-12-18T20:13:04.854Z,-6.91
2022-12-18T20:15:07.153Z,-6.86
2022-12-18T20:17:08.936Z,-6.91
2022-12-18T20:19:13.204Z,-6.95
2022-12-18T20:21:15.995Z,-7.05
2022-12-18T20:23:17.719Z,-7.21
2022-12-18T20:25:19.532Z,-7.25
2022-12-18T20:27:21.626Z,-7.18
2022-12-18T20:29:25.051Z,-7.31
2022-12-18T20:31:26.853Z,-7.16
2022-12-18T20:33:28.754Z,-7.21
2022-12-18T20:35:32.603Z,-7.31
2022-12-18T20:37:34.304Z,-7.41
2022-12-18T20:39:39.237Z,-7.17
2022-12-18T20:41:41.303Z,-7.21
2022-12-18T20:43:43.547Z,-7.48
2022-12-18T20:45:45.762Z,-7.43
2022-12-18T20:47:48.741Z,-7.66
2022-12-18T20:49:50.498Z,-7.68
2022-12-18T20:51:56.826Z,-7.69
2022-12-18T20:53:58.523Z,-7.76
2022-12-18T20:56:00.327Z,-7.76
2022-12-18T20:58:02.065Z,-8.09
2022-12-18T21:00:04.312Z,-7.63
2022-12-18T21:02:06.433Z,-7.54
2022-12-18T21:04:08.283Z,-7.37
2022-12-18T21:06:10.514Z,-7.64
2022-12-18T21:08:12.876Z,-7.26
2022-12-18T21:10:16.768Z,-7.27
2022-12-18T21:12:18.477Z,-7.25
2022-12-18T21:14:28.851Z,-7.31
2022-12-18T21:16:30.822Z,-7.44
2022-12-18T21:18:32.724Z,-7.62
2022-12-18T21:20:34.509Z,-7.42
2022-12-18T21:22:36.363Z,-7.58
2022-12-18T21:24:38.130Z,-7.67
2022-12-18T21:26:45.398Z,-7.63
2022-12-18T21:28:52.662Z,-7.56
2022-12-18T21:30:54.388Z,-7.49
2022-12-18T21:32:56.187Z,-7.41
2022-12-18T21:34:58.159Z,-7.68
2022-12-18T21:37:01.587Z,-7.46
2022-12-18T21:39:03.966Z,-7.56
2022-12-18T21:41:10.723Z,-7.38
2022-12-18T21:43:16.082Z,-7.36
2022-12-18T21:45:19.603Z,-7.45
2022-12-18T21:47:23.225Z,-7.45
2022-12-18T21:49:25.458Z,-7.56
2022-12-18T21:51:27.337Z,-7.39
2022-12-18T21:53:29.063Z,-7.45
2022-12-18T21:55:30.749Z,-7.50
2022-12-18T21:57:32.433Z,-7.39
2022-12-18T21:59:39.336Z,-7.20
2022-12-18T22:01:41.252Z,-7.36
2022-12-18T22:03:43.179Z,-7.40
2022-12-18T22:05:45.805Z,-7.20
2022-12-18T22:07:49.163Z,-7.43
2022-12-18T22:09:50.894Z,-7.16
2022-12-18T22:11:53.408Z,-7.27
2022-12-18T22:13:55.172Z,-7.24
2022-12-18T22:15:56.914Z,-7.55
2022-12-18T22:18:00.080Z,-7.62
2022-12-18T22:20:02.255Z,-7.55
2022-12-18T22:22:03.975Z,-7.48
2022-12-18T22:24:08.902Z,-7.45
2022-12-18T22:26:10.878Z,-7.40
2022-12-18T22:28:14.149Z,-7.34
2022-12-18T22:30:20.870Z,-8.08
2022-12-18T22:32:30.553Z,-7.21
2022-12-18T22:34:36.519Z,-7.57
2022-12-18T22:36:41.716Z,-7.31
2022-12-18T22:38:43.396Z,-7.33
2022-12-18T22:40:45.087Z,-7.27
2022-12-18T22:42:47.105Z,-7.56
2022-12-18T22:44:52.229Z,-7.45
2022-12-18T22:47:00.810Z,-7.28
2022-12-18T22:49:12.900Z,-7.26
2022-12-18T22:51:16.836Z,-7.34
2022-12-18T22:53:18.616Z,-7.17
2022-12-18T22:55:20.617Z,-7.34
2022-12-18T22:57:23.286Z,-7.38
2022-12-18T22:59:25.076Z,-7.08
2022-12-18T23:01:29.397Z,-7.35
2022-12-18T23:03:34.653Z,-7.14
2022-12-18T23:05:36.461Z,-7.09
2022-12-18T23:07:38.387Z,-7.13
2022-12-18T23:09:40.604Z,-7.16
2022-12-18T23:11:42.568Z,-7.13
2022-12-18T23:13:44.538Z,-7.26
2022-12-18T23:15:46.395Z,-7.16
2022-12-18T23:17:48.163Z,-7.33
2022-12-18T23:19:49.967Z,-7.18
2022-12-18T23:21:52.197Z,-7.23
2022-12-18T23:23:56.525Z,-7.19
2022-12-18T23:26:03.589Z,-7.20
2022-12-18T23:28:05.788Z,-7.20
2022-12-18T23:30:08.107Z,-7.27
2022-12-18T23:32:10.068Z,-7.37
2022-12-18T23:34:13.697Z,-7.06
2022-12-18T23:36:16.666Z,-7.06
2022-12-18T23:38:18.766Z,-7.36
2022-12-18T23:40:20.508Z,-7.26
2022-12-18T23:42:22.173Z,-7.12
2022-12-18T23:44:25.827Z,-7.03
2022-12-18T23:46:32.881Z,-6.92
2022-12-18T23:48:34.666Z,-6.99
2022-12-18T23:50:36.547Z,-6.75
2022-12-18T23:52:39.102Z,-6.61
2022-12-18T23:54:40.842Z,-6.95
2022-12-18T23:56:42.718Z,-6.92
2022-12-18T23:58:48.533Z,-6.86
